Tarkio, MO

4:38 AM CDT on July 24, 2019 (GMT -0500)
Rock Port | | Change Station
Active Advisory: Flood Warning

Elev 941 ft 40.41 °N, 95.51 °W | Updated 20 seconds ago

Partly Cloudy
Partly Cloudy
59.5 °F
Feels Like 59.5 °F
N
0
Wind Variable Wind from SSE
Gusts 0.0 mph

Today
High -- | Low -- °F
--% Chance of Precip.
Yesterday
High -- | Low -- °F
Precip. -- in
Pressure 30.21 in
Visibility 10.0 miles
Clouds Mostly Cloudy 5500 ft
Dew Point 50 °F
Humidity 69%
Rainfall 0.00 in
Snow Depth Not available.
6:11 AM 8:44 PM
Waning Gibbous, 56% visible
METAR KSDA 240935Z AUTO 00000KT 10SM BKN055 14/14 A3021 RMK AO2
Pressure 30.21 in
Visibility 10.0 miles
Clouds Mostly Cloudy 5500 ft
Dew Point 50 °F
Humidity 69%
Rainfall 0.00 in
Snow Depth Not available.
6:11 AM 8:44 PM
Waning Gibbous, 56% visible
METAR KSDA 240935Z AUTO 00000KT 10SM BKN055 14/14 A3021 RMK AO2

Get Your Daily Forecast Email!

Thanks for signing up!

Be on the lookout for a verification email in your inbox.

You'll start receiving severe weather alerts in your inbox..

×

10-Day Weather Forecast

Almanac

Astronomy

Jul. 24, 2019 Rise Set
Actual Time
Civil Twilight
Nautical Twilight
Astronomical Twilight
Moon
Length of Visible Light
Length of Day
Tomorrow will be .
, % of the Moon is Illuminated

Today's Extremes

State Highs State Lows

Community

WunderPhotos

Category 6

Welcome to Category 6. This is the collective home for Weather Underground's featured writeups by Dr. Jeff Masters (right), Bob Henson (left), Chris Burt, and other regular contributors.

Nearby

Air Quality

  Air Quality AQ Index Pollutant
Not available.

Snow Depth

Station Depth Elevation

Earthquake Activity

City Distance Mag. Time & Date
Minimum magnitude displayed is 2.5.

Coastal Water Temperatures

Place Temperature

Stations

Nearby Weather Stations

Station Location Temp. Windchill Dew Point Humidity Wind Precip. Elev Updated Type
                   

Watches & Warnings

Flood Warning
Issued: 8:30 PM CDT Jul. 23, 2019 – National Weather Service

The Flood Warning continues for
the Missouri River at Brownville.
* At 8:15 PM Tuesday the stage was 36.0 feet... or 2.0 feet above
flood stage.
* Flood stage is 34.0 feet.
* Minor flooding is occurring and minor flooding is forecast.
* Forecast... the river will continue rising to near 36.1 feet by
after midnight tomorrow. Additional rises may be possible
thereafter.



Lat... Lon 4048 9580 4048 9554 4026 9544 4026 9563
      4044 9574